This is the latest recevied weather packets stored in our database for station/object IU2GFL-13. If no packets are shown the sender has not sent any weather packets the latest 1 day(s).
| Time | Temp. | Humidity | Pressure | Rain* | Wind** | Luminosity | Snow |
|---|---|---|---|---|---|---|---|
| 1778092305 | 13.33° C | 80% | 986.9 hPa | - | - | - | - |
| 1778084892 | 12.78° C | 77% | 985.2 hPa | - | - | - | - |
| 1778082483 | 18.33° C | 71% | 984.6 hPa | - | - | - | - |
| 1778075255 | 21.67° C | 61% | 985.5 hPa | - | - | - | - |
| 1778069226 | 18.89° C | 68% | 986.3 hPa | - | - | - | - |
| 1778065612 | 20.56° C | 68% | 986.4 hPa | - | - | - | - |
| 1778064407 | 18.89° C | 71% | 986.7 hPa | - | - | - | - |
| 1778063203 | 17.78° C | 74% | 986.9 hPa | - | - | - | - |
| 1778061998 | 16.67° C | 77% | 986.9 hPa | - | - | - | - |
| 1778060794 | 17.22° C | 77% | 986.8 hPa | - | - | - | - |
| 1778057180 | 14.44° C | 87% | 986.4 hPa | - | - | - | - |
| 1778054771 | 15° C | 85% | 986.4 hPa | - | - | - | - |
| 1778053566 | 16.67° C | 81% | 986.6 hPa | - | - | - | - |
| 1778051157 | 15° C | 88% | 987 hPa | - | - | - | - |
| 1778049953 | 14.44° C | 90% | 987.2 hPa | - | - | - | - |
| 1778048748 | 14.44° C | 91% | 987.1 hPa | - | - | - | - |
| 1778047543 | 14.44° C | 90% | 986.9 hPa | - | - | - | - |
| 1778046339 | 13.89° C | 91% | 986.8 hPa | - | - | - | - |
| 1778045134 | 13.89° C | 91% | 987 hPa | - | - | - | - |
| 1778042725 | 13.89° C | 91% | 987.2 hPa | - | - | - | - |
| 1778039111 | 13.89° C | 90% | 987.3 hPa | - | - | - | - |
| 1778036701 | 13.89° C | 89% | 987.6 hPa | - | - | - | - |
| 1778034292 | 14.44° C | 88% | 988.2 hPa | - | - | - | - |
| 1778033088 | 13.89° C | 88% | 988.3 hPa | - | - | - | - |
| 1778031883 | 14.44° C | 88% | 988.3 hPa | - | - | - | - |
* Rain since midnight (hover to see other rain measurements)
** Current wind speed in m/s (hover to see current wind gust speed)